Time;durP1;ratioP1;P1;durP2;ratioP2;P2;SDS_P1;SDS_P2;PMS_P1;PMS_P2;Temp;Humidity;BMP_temperature;BMP_pressure;BME280_temperature;BME280_humidity;BME280_pressure;Samples;Min_cycle;Max_cycle;Signal;HPM_P1;HPM_P2
2023/11/26 00:01:42;;;;;;;24.40;5.63;;;;;;;6.47;100.00;101615.00;5271589;28;20019;-74
2023/11/26 00:04:12;;;;;;;22.38;5.80;;;;;;;6.48;100.00;101616.75;5268635;28;20043;-74
2023/11/26 00:06:43;;;;;;;37.05;7.22;;;;;;;6.53;100.00;101619.88;5272253;28;20015;-74
2023/11/26 00:09:15;;;;;;;23.08;5.25;;;;;;;6.55;100.00;101617.09;5270283;28;20024;-74
2023/11/26 00:11:45;;;;;;;21.10;7.10;;;;;;;6.58;100.00;101619.53;5268104;28;20508;-74
2023/11/26 00:14:16;;;;;;;19.90;5.75;;;;;;;6.63;100.00;101614.69;5269861;28;20114;-74
2023/11/26 00:16:47;;;;;;;24.27;5.68;;;;;;;6.69;100.00;101622.19;5272265;28;20077;-73
2023/11/26 00:19:17;;;;;;;22.45;7.47;;;;;;;6.70;100.00;101621.22;5269504;28;20033;-74
2023/11/26 00:21:49;;;;;;;19.88;6.80;;;;;;;6.72;100.00;101619.25;5270180;27;20024;-74
2023/11/26 00:24:19;;;;;;;24.98;6.70;;;;;;;6.73;100.00;101624.47;5269763;28;20099;-74
2023/11/26 00:26:50;;;;;;;20.63;6.43;;;;;;;6.73;100.00;101624.47;5267342;28;20023;-74
2023/11/26 00:29:20;;;;;;;21.13;6.53;;;;;;;6.79;100.00;101625.81;5269337;28;20032;-74
2023/11/26 00:31:51;;;;;;;29.10;7.47;;;;;;;6.82;100.00;101625.53;5269242;28;20016;-74
2023/11/26 00:34:22;;;;;;;26.20;7.95;;;;;;;6.85;100.00;101630.66;5268023;28;20081;-74
2023/11/26 00:36:52;;;;;;;23.17;7.15;;;;;;;6.87;100.00;101627.84;5270897;28;20043;-74
2023/11/26 00:39:24;;;;;;;24.52;7.55;;;;;;;6.80;100.00;101622.16;5262643;28;20023;-74
2023/11/26 00:41:54;;;;;;;33.97;9.25;;;;;;;6.74;100.00;101620.00;5267119;28;20028;-74
2023/11/26 00:44:25;;;;;;;34.70;8.05;;;;;;;6.69;100.00;101624.84;5266412;28;20078;-74
2023/11/26 00:46:56;;;;;;;26.88;7.95;;;;;;;6.61;100.00;101621.94;5268289;28;20020;-74
2023/11/26 00:49:26;;;;;;;26.13;8.35;;;;;;;6.56;100.00;101624.97;5266446;28;20046;-74
2023/11/26 00:51:57;;;;;;;22.90;8.93;;;;;;;6.51;100.00;101623.63;5266190;28;20069;-74
2023/11/26 00:54:28;;;;;;;30.15;9.70;;;;;;;6.45;100.00;101624.97;5268005;28;20024;-74
2023/11/26 00:56:59;;;;;;;25.13;8.05;;;;;;;6.42;100.00;101625.19;5269670;28;20022;-74
2023/11/26 00:59:29;;;;;;;38.03;8.85;;;;;;;6.37;100.00;101622.88;5269104;28;20032;-74
2023/11/26 01:02:00;;;;;;;29.42;9.80;;;;;;;6.33;100.00;101621.47;5264404;28;20028;-74
2023/11/26 01:04:30;;;;;;;32.20;9.23;;;;;;;6.27;100.00;101619.25;5268277;28;20435;-74
2023/11/26 01:07:01;;;;;;;29.58;9.80;;;;;;;6.22;100.00;101616.09;5267077;28;20024;-74
2023/11/26 01:09:32;;;;;;;32.83;10.32;;;;;;;6.18;100.00;101612.00;5268657;28;20020;-74
2023/11/26 01:12:03;;;;;;;34.17;10.23;;;;;;;6.14;100.00;101618.53;5264888;28;20067;-74
2023/11/26 01:14:34;;;;;;;34.92;10.65;;;;;;;6.16;100.00;101611.25;5270653;28;20028;-74
2023/11/26 01:17:04;;;;;;;35.08;11.48;;;;;;;6.15;100.00;101615.72;5268641;28;20020;-74
2023/11/26 01:19:34;;;;;;;35.60;9.23;;;;;;;6.16;100.00;101624.56;5269884;28;20031;-74
2023/11/26 01:22:05;;;;;;;31.85;9.88;;;;;;;6.16;100.00;101625.41;5268091;28;20016;-74
2023/11/26 01:24:36;;;;;;;31.60;9.57;;;;;;;6.18;100.00;101631.47;5265934;28;20043;-74
2023/11/26 01:27:06;;;;;;;28.20;9.07;;;;;;;6.26;100.00;101630.88;5268779;28;20069;-74
2023/11/26 01:29:36;;;;;;;28.30;9.07;;;;;;;6.28;100.00;101636.09;5268028;28;20024;-74
2023/11/26 01:32:07;;;;;;;40.08;10.60;;;;;;;6.33;100.00;101633.94;5266366;28;20111;-74
2023/11/26 01:34:38;;;;;;;36.20;9.75;;;;;;;6.36;100.00;101637.19;5269524;28;20110;-74
2023/11/26 01:37:08;;;;;;;26.75;9.00;;;;;;;6.39;100.00;101639.63;5268324;28;20051;-74
2023/11/26 01:39:39;;;;;;;21.77;8.88;;;;;;;6.44;100.00;101636.59;5266693;28;20041;-74
2023/11/26 01:42:10;;;;;;;43.53;12.23;;;;;;;6.46;100.00;101631.97;5267974;28;20497;-74
2023/11/26 01:44:41;;;;;;;32.85;11.27;;;;;;;6.48;100.00;101638.06;5270096;28;20028;-74
2023/11/26 01:47:12;;;;;;;27.50;9.70;;;;;;;6.48;100.00;101636.25;5265154;28;20022;-74
2023/11/26 01:49:43;;;;;;;35.28;9.45;;;;;;;6.54;100.00;101644.72;5265753;28;20105;-74
2023/11/26 01:52:14;;;;;;;33.10;10.07;;;;;;;6.57;100.00;101633.81;5262973;28;20063;-74
2023/11/26 01:54:45;;;;;;;26.42;9.27;;;;;;;6.61;100.00;101643.25;5269789;28;20023;-74
2023/11/26 01:57:18;;;;;;;29.15;10.27;;;;;;;6.65;100.00;101634.91;5267604;28;20035;-74
2023/11/26 01:59:49;;;;;;;27.98;9.10;;;;;;;6.67;100.00;101637.44;5268848;28;20024;-74
2023/11/26 02:02:19;;;;;;;31.65;8.77;;;;;;;6.68;100.00;101629.34;5268769;28;20096;-75
2023/11/26 02:04:50;;;;;;;28.45;9.73;;;;;;;6.70;100.00;101631.88;5268877;28;20174;-75
2023/11/26 02:07:20;;;;;;;33.15;9.25;;;;;;;6.69;100.00;101630.19;5267600;28;20028;-75
2023/11/26 02:09:51;;;;;;;36.20;8.80;;;;;;;6.68;100.00;101640.00;5269206;28;20046;-75
2023/11/26 02:12:22;;;;;;;36.00;10.70;;;;;;;6.66;100.00;101641.06;5266791;28;20035;-75
2023/11/26 02:14:53;;;;;;;28.98;9.27;;;;;;;6.62;100.00;101639.63;5265316;28;20829;-75
2023/11/26 02:17:25;;;;;;;31.52;8.77;;;;;;;6.60;100.00;101639.75;5265676;28;20124;-75
2023/11/26 02:20:00;;;;;;;30.35;10.00;;;;;;;6.58;100.00;101638.19;5268043;28;20024;-75
2023/11/26 02:22:31;;;;;;;32.50;9.32;;;;;;;6.57;100.00;101637.31;5264532;28;20039;-75
2023/11/26 02:25:01;;;;;;;23.45;8.50;;;;;;;6.56;100.00;101635.63;5264997;28;20469;-75
2023/11/26 02:27:33;;;;;;;32.47;8.88;;;;;;;6.57;100.00;101641.78;5267821;28;20504;-75
2023/11/26 02:30:05;;;;;;;28.85;8.85;;;;;;;6.59;100.00;101639.88;5262365;28;20027;-75
2023/11/26 02:32:36;;;;;;;41.55;10.20;;;;;;;6.64;100.00;101643.03;5267241;28;20035;-75
2023/11/26 02:35:07;;;;;;;27.33;8.77;;;;;;;6.64;100.00;101648.38;5266645;28;20023;-75
2023/11/26 02:37:37;;;;;;;36.10;9.60;;;;;;;6.61;100.00;101645.94;5269471;28;20092;-75
2023/11/26 02:40:08;;;;;;;41.92;10.85;;;;;;;6.67;100.00;101645.44;5264815;28;20119;-75
2023/11/26 02:42:39;;;;;;;31.25;8.30;;;;;;;6.70;100.00;101640.72;5268719;28;20539;-75
2023/11/26 02:45:09;;;;;;;32.60;8.93;;;;;;;6.72;100.00;101638.75;5266276;28;20145;-74
2023/11/26 02:47:40;;;;;;;25.80;8.65;;;;;;;6.72;100.00;101640.59;5268356;28;20023;-75
2023/11/26 02:50:11;;;;;;;37.40;8.48;;;;;;;6.77;100.00;101638.41;5266658;28;20017;-75
2023/11/26 02:52:42;;;;;;;23.25;7.93;;;;;;;6.74;100.00;101633.31;5264355;28;20035;-75
2023/11/26 02:55:12;;;;;;;25.98;9.35;;;;;;;6.72;100.00;101633.44;5266553;28;20111;-75
2023/11/26 02:57:43;;;;;;;26.23;7.45;;;;;;;6.66;100.00;101630.41;5268274;28;20172;-75
2023/11/26 03:00:30;;;;;;;33.33;8.77;;;;;;;6.62;100.00;101627.13;5267159;28;20039;-73
2023/11/26 03:03:03;;;;;;;29.73;7.75;;;;;;;6.60;100.00;101631.75;5266830;28;20093;-73
2023/11/26 03:05:34;;;;;;;25.33;8.23;;;;;;;6.59;100.00;101629.22;5270475;28;20020;-73
2023/11/26 03:08:21;;;;;;;30.88;8.05;;;;;;;6.52;100.00;101628.81;5270917;28;20051;-73
2023/11/26 03:13:40;;;;;;;23.13;7.82;;;;;;;6.66;100.00;101633.06;5272522;28;20031;-73
2023/11/26 03:16:12;;;;;;;31.67;7.88;;;;;;;6.69;100.00;101636.34;5271694;28;20416;-73
2023/11/26 03:18:43;;;;;;;23.38;7.40;;;;;;;6.73;100.00;101643.16;5270928;28;20035;-73
2023/11/26 03:21:15;;;;;;;35.55;9.43;;;;;;;6.77;100.00;101640.22;5267301;28;20035;-74
2023/11/26 03:23:46;;;;;;;26.45;7.40;;;;;;;6.82;100.00;101640.69;5272422;28;20070;-74
2023/11/26 03:26:17;;;;;;;24.40;8.05;;;;;;;6.84;100.00;101642.28;5269273;28;20054;-74
2023/11/26 03:28:47;;;;;;;24.10;7.57;;;;;;;6.85;100.00;101627.13;5271783;28;20019;-73
2023/11/26 03:31:18;;;;;;;25.23;8.30;;;;;;;6.84;100.00;101641.44;5270201;28;20386;-74
2023/11/26 03:33:49;;;;;;;22.92;7.20;;;;;;;6.89;100.00;101631.25;5270438;28;20024;-73
2023/11/26 03:36:19;;;;;;;25.85;7.78;;;;;;;6.87;100.00;101634.03;5271372;28;20034;-74
2023/11/26 03:38:50;;;;;;;25.30;7.63;;;;;;;6.88;100.00;101637.56;5269388;28;20082;-74
2023/11/26 03:41:20;;;;;;;25.55;8.05;;;;;;;6.90;100.00;101639.13;5268118;28;20028;-74
2023/11/26 03:43:51;;;;;;;24.10;7.55;;;;;;;6.97;100.00;101642.13;5270058;28;20056;-73
2023/11/26 03:46:21;;;;;;;35.65;7.93;;;;;;;6.97;100.00;101637.66;5270160;28;20031;-74
2023/11/26 03:48:52;;;;;;;30.63;7.85;;;;;;;7.00;100.00;101645.41;5270413;28;20102;-74
2023/11/26 03:51:23;;;;;;;25.27;7.40;;;;;;;7.03;100.00;101640.78;5269855;28;20036;-73
2023/11/26 03:53:53;;;;;;;29.27;8.07;;;;;;;7.05;100.00;101644.22;5270894;28;20102;-74
2023/11/26 03:56:24;;;;;;;43.78;8.85;;;;;;;7.09;100.00;101649.16;5271373;28;20115;-74
2023/11/26 03:58:55;;;;;;;26.23;8.05;;;;;;;7.11;100.00;101646.38;5270209;27;20092;-73
2023/11/26 04:01:26;;;;;;;21.35;7.97;;;;;;;7.06;100.00;101638.72;5269754;28;20038;-73
2023/11/26 04:03:57;;;;;;;26.73;7.22;;;;;;;7.10;100.00;101642.00;5268647;28;20052;-74
2023/11/26 04:06:29;;;;;;;20.60;6.60;;;;;;;7.17;100.00;101641.38;5269011;28;20055;-74
2023/11/26 04:08:59;;;;;;;29.30;6.80;;;;;;;7.21;100.00;101647.31;5266825;28;20027;-74
2023/11/26 04:11:30;;;;;;;28.90;7.72;;;;;;;7.23;100.00;101656.06;5268084;28;20408;-73
2023/11/26 04:14:00;;;;;;;33.30;7.70;;;;;;;7.30;100.00;101645.72;5267771;28;20036;-73
2023/11/26 04:16:31;;;;;;;24.90;7.32;;;;;;;7.31;100.00;101648.25;5267772;28;20024;-74
2023/11/26 04:19:01;;;;;;;27.27;6.55;;;;;;;7.27;100.00;101644.13;5269727;28;20504;-74
2023/11/26 04:21:32;;;;;;;25.70;6.75;;;;;;;7.27;100.00;101649.47;5267443;28;20150;-74
2023/11/26 04:24:03;;;;;;;26.55;6.85;;;;;;;7.26;100.00;101647.78;5267886;28;20562;-74
2023/11/26 04:26:34;;;;;;;22.85;7.95;;;;;;;7.30;100.00;101654.56;5270608;28;20066;-74
2023/11/26 04:29:05;;;;;;;30.45;7.05;;;;;;;7.33;100.00;101664.13;5267267;28;20012;-74
2023/11/26 04:31:36;;;;;;;31.83;8.02;;;;;;;7.38;100.00;101662.81;5268619;28;20119;-74
2023/11/26 04:34:07;;;;;;;27.55;7.50;;;;;;;7.37;100.00;101654.91;5268748;28;20141;-74
2023/11/26 04:36:37;;;;;;;20.73;7.22;;;;;;;7.36;100.00;101656.75;5268708;28;20031;-74
2023/11/26 04:39:08;;;;;;;23.30;6.80;;;;;;;7.34;100.00;101653.34;5266417;28;20034;-74
2023/11/26 04:41:38;;;;;;;21.23;7.80;;;;;;;7.26;100.00;101643.28;5270769;28;20388;-74
2023/11/26 04:44:09;;;;;;;24.55;7.35;;;;;;;7.22;100.00;101636.50;5268986;28;20028;-74
2023/11/26 04:46:39;;;;;;;30.38;7.85;;;;;;;7.24;100.00;101644.41;5270202;28;20269;-74
2023/11/26 04:49:10;;;;;;;32.22;8.02;;;;;;;7.23;100.00;101648.06;5266999;28;20149;-74
2023/11/26 04:51:41;;;;;;;25.40;7.75;;;;;;;7.21;100.00;101637.47;5269245;28;20480;-74
2023/11/26 04:54:12;;;;;;;36.30;11.07;;;;;;;7.19;100.00;101643.94;5268996;28;20608;-73
2023/11/26 04:56:42;;;;;;;24.38;8.63;;;;;;;7.14;100.00;101643.47;5268708;28;20031;-74
2023/11/26 04:59:13;;;;;;;25.17;7.25;;;;;;;7.12;100.00;101653.41;5267895;28;20028;-74
2023/11/26 05:01:44;;;;;;;25.90;8.82;;;;;;;7.08;100.00;101644.81;5260805;28;20027;-73
2023/11/26 05:04:15;;;;;;;33.40;8.45;;;;;;;7.10;100.00;101639.34;5267184;28;20028;-74
2023/11/26 05:06:45;;;;;;;26.63;8.70;;;;;;;7.08;100.00;101649.28;5270637;28;20444;-74
2023/11/26 05:09:16;;;;;;;29.20;9.43;;;;;;;7.09;100.00;101648.31;5269055;28;20144;-74
2023/11/26 05:11:46;;;;;;;25.95;8.98;;;;;;;7.12;100.00;101648.91;5264910;28;20110;-74
2023/11/26 05:14:17;;;;;;;25.88;7.82;;;;;;;7.12;100.00;101648.91;5266799;28;20059;-74
2023/11/26 05:16:47;;;;;;;29.60;8.30;;;;;;;7.12;100.00;101643.56;5268420;28;20020;-74
2023/11/26 05:19:18;;;;;;;22.95;8.20;;;;;;;7.14;100.00;101640.78;5266717;28;20028;-74
2023/11/26 05:21:48;;;;;;;27.20;7.68;;;;;;;7.18;100.00;101632.41;5269536;28;20106;-73
2023/11/26 05:24:19;;;;;;;28.38;8.15;;;;;;;7.17;100.00;101638.69;5269149;28;20032;-74
2023/11/26 05:26:49;;;;;;;20.15;7.78;;;;;;;7.18;100.00;101643.09;5268703;28;20016;-74
2023/11/26 05:29:20;;;;;;;23.27;8.77;;;;;;;7.22;100.00;101649.00;5268724;28;20412;-73
2023/11/26 05:31:50;;;;;;;27.15;8.13;;;;;;;7.24;100.00;101642.59;5267665;28;20127;-73
2023/11/26 05:34:20;;;;;;;35.03;9.25;;;;;;;7.31;100.00;101648.25;5268881;28;20435;-73
2023/11/26 05:36:51;;;;;;;34.72;13.48;;;;;;;7.33;100.00;101651.66;5274221;28;20445;-74
2023/11/26 05:39:21;;;;;;;26.15;8.75;;;;;;;7.29;100.00;101642.22;5273981;28;20159;-74
2023/11/26 05:41:52;;;;;;;29.90;11.88;;;;;;;7.29;100.00;101641.38;5269611;27;20024;-73
2023/11/26 05:44:22;;;;;;;34.00;11.30;;;;;;;7.26;100.00;101637.97;5272134;28;20020;-73
2023/11/26 05:46:53;;;;;;;30.23;9.00;;;;;;;7.28;100.00;101632.53;5277277;28;20024;-74
2023/11/26 05:49:23;;;;;;;44.40;20.20;;;;;;;7.32;100.00;101643.75;5279042;28;20020;-74
2023/11/26 05:51:56;;;;;;;75.78;39.35;;;;;;;7.34;100.00;101642.69;5272441;28;20148;-73
2023/11/26 05:54:28;;;;;;;24.88;10.40;;;;;;;7.38;100.00;101637.91;5276315;28;20072;-74
2023/11/26 05:57:00;;;;;;;29.95;8.70;;;;;;;7.41;100.00;101638.53;5281953;28;20088;-74
2023/11/26 05:59:30;;;;;;;20.92;7.65;;;;;;;7.42;100.00;101634.03;5274752;28;20031;-73
2023/11/26 06:02:00;;;;;;;24.75;8.52;;;;;;;7.42;100.00;101640.22;5273308;28;20575;-74
2023/11/26 06:04:31;;;;;;;19.52;7.07;;;;;;;7.43;100.00;101647.28;5279601;28;20030;-74
2023/11/26 06:07:02;;;;;;;28.98;7.65;;;;;;;7.48;100.00;101638.84;5274402;28;20024;-74
2023/11/26 06:09:33;;;;;;;19.17;7.43;;;;;;;7.49;100.00;101641.41;5273076;28;20063;-74
2023/11/26 06:12:04;;;;;;;22.83;7.03;;;;;;;7.46;100.00;101641.66;5275135;28;20043;-74
2023/11/26 06:14:35;;;;;;;25.23;8.57;;;;;;;7.46;100.00;101641.66;5281598;28;20106;-74
2023/11/26 06:17:06;;;;;;;29.42;9.48;;;;;;;7.49;100.00;101648.59;5273963;28;20103;-74
2023/11/26 06:19:37;;;;;;;22.25;7.35;;;;;;;7.46;100.00;101643.47;5274995;28;20046;-73
2023/11/26 06:22:07;;;;;;;25.60;6.85;;;;;;;7.51;100.00;101639.47;5272043;28;20028;-73
2023/11/26 06:24:38;;;;;;;26.40;9.40;;;;;;;7.50;100.00;101647.59;5276004;28;20028;-74
2023/11/26 06:27:09;;;;;;;69.45;32.45;;;;;;;7.49;100.00;101649.44;5278580;28;20030;-74
2023/11/26 06:29:39;;;;;;;62.30;32.05;;;;;;;7.50;100.00;101651.13;5276948;28;20380;-73
2023/11/26 06:32:10;;;;;;;30.52;14.05;;;;;;;7.49;100.00;101649.44;5277881;28;20140;-73
2023/11/26 06:34:40;;;;;;;23.20;7.20;;;;;;;7.52;100.00;101651.81;5268732;28;20024;-73
2023/11/26 06:37:11;;;;;;;26.92;8.40;;;;;;;7.48;100.00;101654.88;5277973;28;20385;-73
2023/11/26 06:39:41;;;;;;;27.10;8.00;;;;;;;7.48;100.00;101661.09;5275907;28;20422;-74
2023/11/26 06:42:12;;;;;;;27.17;8.80;;;;;;;7.47;100.00;101654.03;5281595;27;20035;-73
2023/11/26 06:44:43;;;;;;;26.33;7.30;;;;;;;7.45;100.00;101655.16;5274469;28;20396;-73
2023/11/26 06:47:13;;;;;;;22.85;7.10;;;;;;;7.43;100.00;101654.41;5267798;28;20439;-74
2023/11/26 06:49:44;;;;;;;36.40;7.63;;;;;;;7.38;100.00;101651.25;5278774;28;20395;-73
2023/11/26 06:52:14;;;;;;;24.75;7.03;;;;;;;7.35;100.00;101659.53;5279796;28;20031;-73
2023/11/26 06:54:44;;;;;;;29.60;7.35;;;;;;;7.33;100.00;101651.66;5277568;28;20027;-73
2023/11/26 06:57:15;;;;;;;31.08;8.13;;;;;;;7.31;100.00;101664.28;5278810;28;20108;-73
2023/11/26 06:59:46;;;;;;;29.60;7.15;;;;;;;7.26;100.00;101655.78;5282731;28;20057;-73
2023/11/26 07:02:16;;;;;;;24.17;7.00;;;;;;;7.25;100.00;101651.44;5276399;28;20024;-73
2023/11/26 07:04:47;;;;;;;25.33;7.40;;;;;;;7.21;100.00;101650.00;5283015;28;20073;-73
2023/11/26 07:07:19;;;;;;;30.10;9.52;;;;;;;7.21;100.00;101644.66;5277689;28;20031;-73
2023/11/26 07:09:51;;;;;;;25.60;8.05;;;;;;;7.19;100.00;101647.44;5276150;28;20033;-73
2023/11/26 07:12:22;;;;;;;28.90;7.80;;;;;;;7.20;100.00;101646.47;5275337;28;20092;-73
2023/11/26 07:14:52;;;;;;;26.20;8.52;;;;;;;7.19;100.00;101647.44;5278597;28;20024;-73
2023/11/26 07:17:25;;;;;;;27.55;7.63;;;;;;;7.21;100.00;101650.81;5275098;28;20076;-74
2023/11/26 07:19:55;;;;;;;32.08;14.35;;;;;;;7.27;100.00;101661.00;5273686;27;20032;-73
2023/11/26 07:22:26;;;;;;;29.90;9.02;;;;;;;7.32;100.00;101659.78;5281876;27;20365;-73
2023/11/26 07:24:56;;;;;;;25.92;13.23;;;;;;;7.35;100.00;101657.72;5271113;28;20028;-73
2023/11/26 07:27:26;;;;;;;43.13;21.75;;;;;;;7.39;100.00;101655.66;5277910;28;20024;-73
2023/11/26 07:29:57;;;;;;;32.60;14.88;;;;;;;7.39;100.00;101658.31;5274960;28;20072;-73
2023/11/26 07:32:29;;;;;;;29.58;12.27;;;;;;;7.41;100.00;101659.03;5279881;28;20481;-73
2023/11/26 07:35:00;;;;;;;24.95;8.93;;;;;;;7.44;100.00;101666.81;5282365;28;20934;-74
2023/11/26 07:37:30;;;;;;;29.20;8.77;;;;;;;7.44;100.00;101662.31;5274753;28;20031;-73
2023/11/26 07:40:01;;;;;;;26.73;8.98;;;;;;;7.46;100.00;101668.34;5273277;28;20442;-73
2023/11/26 07:42:33;;;;;;;34.97;10.70;;;;;;;7.48;100.00;101663.75;5277555;27;20050;-74
2023/11/26 07:45:04;;;;;;;25.95;8.82;;;;;;;7.52;100.00;101657.16;5270834;28;20377;-73
2023/11/26 07:47:34;;;;;;;31.17;8.98;;;;;;;7.50;100.00;101660.94;5277827;28;20036;-73
2023/11/26 07:50:06;;;;;;;23.10;8.63;;;;;;;7.54;100.00;101659.72;5275514;28;20038;-73
2023/11/26 07:52:37;;;;;;;36.33;11.02;;;;;;;7.52;100.00;101665.19;5275549;28;20362;-73
2023/11/26 07:55:08;;;;;;;36.35;17.90;;;;;;;7.58;100.00;101660.31;5279364;28;20071;-73
2023/11/26 07:57:40;;;;;;;28.15;11.02;;;;;;;7.64;100.00;101663.34;5276053;28;20031;-73
2023/11/26 08:00:13;;;;;;;65.22;41.08;;;;;;;7.67;100.00;101676.41;5274637;28;20024;-73
2023/11/26 08:02:45;;;;;;;30.13;12.90;;;;;;;7.67;100.00;101670.22;5277288;28;20028;-73
2023/11/26 08:05:18;;;;;;;33.53;11.18;;;;;;;7.72;100.00;101682.22;5273565;28;20076;-73
2023/11/26 08:07:51;;;;;;;25.27;10.18;;;;;;;7.70;100.00;101672.66;5272755;28;20050;-73
2023/11/26 08:10:26;;;;;;;27.30;9.60;;;;;;;7.69;100.00;101665.63;5270406;28;20016;-73
2023/11/26 08:12:57;;;;;;;;;;;;;;;7.75;100.00;101665.09;5275311;28;20453;-73
2023/11/26 08:15:28;;;;;;;31.23;10.88;;;;;;;7.80;100.00;101665.56;5271938;28;19911;-73
2023/11/26 08:17:58;;;;;;;29.33;12.65;;;;;;;7.80;100.00;101662.91;5275650;28;20397;-73
2023/11/26 08:20:28;;;;;;;38.08;12.05;;;;;;;7.86;100.00;101661.53;5273492;28;20019;-73
2023/11/26 08:23:01;;;;;;;31.23;11.70;;;;;;;7.85;100.00;101666.03;5274697;28;20028;-73
2023/11/26 08:25:33;;;;;;;29.73;11.63;;;;;;;7.91;100.00;101662.84;5274244;28;20052;-73
2023/11/26 08:28:06;;;;;;;39.72;14.00;;;;;;;7.92;100.00;101674.38;5273970;28;20023;-73
2023/11/26 08:30:44;;;;;;;22.30;10.40;;;;;;;7.92;100.00;101671.69;5259514;28;20031;-73
2023/11/26 08:33:20;;;;;;;24.50;10.40;;;;;;;7.90;100.00;101665.66;5271191;28;20035;-73
2023/11/26 08:35:53;;;;;;;37.22;10.82;;;;;;;7.90;100.00;101666.50;5274029;28;20191;-73
2023/11/26 08:38:24;;;;;;;33.28;13.07;;;;;;;7.94;100.00;101665.25;5275663;28;20034;-73
2023/11/26 08:40:55;;;;;;;38.08;17.02;;;;;;;7.96;100.00;101671.31;5269309;28;20036;-73
2023/11/26 08:43:26;;;;;;;50.55;24.65;;;;;;;8.01;100.00;101669.09;5279846;28;20168;-73
2023/11/26 08:46:01;;;;;;;43.67;23.83;;;;;;;8.00;100.00;101672.75;5270759;28;20032;-72
2023/11/26 08:48:36;;;;;;;34.67;12.20;;;;;;;8.07;100.00;101675.75;5276425;28;20062;-72
2023/11/26 08:51:06;;;;;;;33.03;11.73;;;;;;;8.11;100.00;101671.00;5270413;28;20461;-74
2023/11/26 08:53:37;;;;;;;30.13;12.27;;;;;;;8.10;100.00;101677.34;5273827;28;20050;-73
2023/11/26 08:56:08;;;;;;;37.42;12.88;;;;;;;8.11;100.00;101679.03;5273098;28;20015;-74
2023/11/26 08:58:38;;;;;;;36.00;16.48;;;;;;;8.17;100.00;101678.50;5272016;28;20496;-74
2023/11/26 09:01:09;;;;;;;35.25;16.45;;;;;;;8.20;100.00;101673.75;5275101;28;20015;-74
2023/11/26 09:03:40;;;;;;;34.92;12.23;;;;;;;8.24;100.00;101674.34;5270772;28;20032;-74
2023/11/26 09:06:11;;;;;;;38.55;13.85;;;;;;;8.22;100.00;101677.13;5274529;28;20075;-74
2023/11/26 09:08:41;;;;;;;35.72;13.77;;;;;;;8.25;100.00;101679.53;5273277;28;20043;-74
2023/11/26 09:11:12;;;;;;;33.90;11.00;;;;;;;8.26;100.00;101677.72;5276903;28;20024;-74
2023/11/26 09:13:42;;;;;;;35.90;11.38;;;;;;;8.33;100.00;101684.22;5278611;28;20031;-74
2023/11/26 09:16:13;;;;;;;34.70;12.25;;;;;;;8.30;100.00;101688.03;5281423;28;20023;-74
2023/11/26 09:18:44;;;;;;;29.50;10.95;;;;;;;8.31;100.00;101680.84;5270846;28;20526;-74
2023/11/26 09:21:14;;;;;;;39.28;17.83;;;;;;;8.37;100.00;101677.66;5267740;28;20525;-74
2023/11/26 09:23:45;;;;;;;38.65;16.73;;;;;;;8.32;100.00;101683.38;5275766;28;20023;-74
2023/11/26 09:26:16;;;;;;;60.67;29.13;;;;;;;8.36;100.00;101681.31;5274588;28;20031;-74
2023/11/26 09:28:46;;;;;;;87.97;55.85;;;;;;;8.39;100.00;101685.59;5275226;28;20030;-74
2023/11/26 09:31:17;;;;;;;34.55;15.73;;;;;;;8.37;100.00;101679.50;5266585;28;20080;-74
2023/11/26 09:33:47;;;;;;;61.88;33.28;;;;;;;8.47;100.00;101681.25;5271967;28;20034;-73
2023/11/26 09:36:17;;;;;;;28.50;10.30;;;;;;;8.51;100.00;101679.16;5269170;28;20384;-74
2023/11/26 09:38:48;;;;;;;29.58;10.02;;;;;;;8.51;100.00;101684.50;5274842;28;20047;-74
2023/11/26 09:41:21;;;;;;;26.92;10.75;;;;;;;8.50;100.00;101672.13;5272652;28;20043;-74
2023/11/26 09:43:51;;;;;;;46.28;18.63;;;;;;;8.52;100.00;101673.66;5274436;28;20545;-74
2023/11/26 09:46:25;;;;;;;31.48;13.07;;;;;;;8.54;100.00;101679.75;5270220;28;20035;-74
2023/11/26 09:48:56;;;;;;;32.42;14.10;;;;;;;8.50;100.00;101681.00;5270409;28;20123;-74
2023/11/26 09:51:27;;;;;;;23.40;9.68;;;;;;;8.49;100.00;101691.84;5269484;28;20659;-74
2023/11/26 09:53:58;;;;;;;34.03;10.88;;;;;;;8.42;100.00;101683.47;5271572;27;20595;-74
2023/11/26 09:56:30;;;;;;;31.00;10.77;;;;;;;8.42;100.00;101686.13;5276453;28;20031;-74
2023/11/26 09:59:03;;;;;;;29.60;10.35;;;;;;;8.43;100.00;101695.00;5267914;28;20028;-74
2023/11/26 10:01:34;;;;;;;28.30;11.05;;;;;;;8.49;100.00;101694.50;5262811;28;20032;-74
2023/11/26 10:04:05;;;;;;;29.38;12.48;;;;;;;8.44;100.00;101686.88;5267848;28;20046;-74
2023/11/26 10:06:36;;;;;;;32.88;10.98;;;;;;;8.49;100.00;101690.00;5269534;28;20160;-75
2023/11/26 10:09:17;;;;;;;24.50;10.60;;;;;;;8.45;100.00;101683.22;5271450;28;20031;-74
2023/11/26 10:11:48;;;;;;;27.15;11.10;;;;;;;8.34;100.00;101682.41;5263292;28;20366;-74
2023/11/26 10:14:20;;;;;;;34.05;10.23;;;;;;;8.45;100.00;101677.03;5269223;28;20024;-74
2023/11/26 10:16:51;;;;;;;29.20;11.30;;;;;;;8.48;100.00;101679.41;5265960;27;20064;-74
2023/11/26 10:19:25;;;;;;;33.60;11.40;;;;;;;8.50;100.00;101666.78;5273063;28;20047;-74
2023/11/26 10:21:58;;;;;;;28.13;10.82;;;;;;;8.51;100.00;101669.31;5267635;28;20111;-74
2023/11/26 10:24:30;;;;;;;28.02;11.63;;;;;;;8.56;100.00;101664.41;5274071;28;20055;-74
2023/11/26 10:27:11;;;;;;;28.15;11.75;;;;;;;8.47;100.00;101665.19;5269217;28;20027;-74
2023/11/26 10:29:42;;;;;;;59.83;21.55;;;;;;;8.46;100.00;101663.50;5273435;28;20406;-74
2023/11/26 10:32:16;;;;;;;32.97;14.32;;;;;;;8.42;100.00;101658.56;5269865;28;20022;-74
2023/11/26 10:34:54;;;;;;;38.08;17.55;;;;;;;8.43;100.00;101658.41;5268638;28;20042;-74
2023/11/26 10:37:25;;;;;;;35.90;10.98;;;;;;;8.44;100.00;101678.84;5269322;28;20032;-74
2023/11/26 10:39:57;;;;;;;31.38;12.75;;;;;;;8.37;100.00;101664.28;5262906;28;20024;-74
2023/11/26 10:42:29;;;;;;;42.88;18.45;;;;;;;8.38;100.00;101660.63;5277841;27;20038;-74
2023/11/26 10:45:01;;;;;;;48.75;16.10;;;;;;;8.35;100.00;101650.19;5272256;28;20028;-74
2023/11/26 10:47:35;;;;;;;37.53;13.50;;;;;;;8.52;100.00;101649.59;5272825;28;20078;-74
2023/11/26 10:50:09;;;;;;;51.88;14.50;;;;;;;8.49;100.00;101649.88;5273084;28;20028;-74
2023/11/26 10:52:49;;;;;;;36.83;12.90;;;;;;;8.53;100.00;101645.97;5271922;28;20057;-74
2023/11/26 10:55:32;;;;;;;32.95;13.27;;;;;;;8.57;100.00;101654.56;5276569;28;20036;-74
2023/11/26 10:58:17;;;;;;;41.60;13.13;;;;;;;8.57;100.00;101649.19;5271806;28;20056;-74
2023/11/26 11:00:52;;;;;;;32.47;11.70;;;;;;;8.56;100.00;101644.84;5258574;28;20031;-74
2023/11/26 11:03:24;;;;;;;50.88;14.95;;;;;;;8.62;100.00;101640.78;5262532;28;20043;-74
2023/11/26 11:05:57;;;;;;;27.30;11.23;;;;;;;8.62;100.00;101638.94;5265199;28;20039;-74
2023/11/26 11:08:29;;;;;;;37.38;16.13;;;;;;;8.66;100.00;101632.34;5270455;28;20024;-74
2023/11/26 11:11:08;;;;;;;43.42;23.05;;;;;;;8.70;100.00;101636.47;5260690;28;20099;-74
2023/11/26 11:13:39;;;;;;;52.90;32.72;;;;;;;8.69;100.00;101628.59;5269128;28;20023;-74
2023/11/26 11:16:10;;;;;;;43.33;23.10;;;;;;;8.74;100.00;101632.53;5267203;28;20117;-74
2023/11/26 11:18:43;;;;;;;36.90;12.23;;;;;;;8.73;100.00;101635.31;5266910;27;20481;-74
2023/11/26 11:21:16;;;;;;;33.95;13.77;;;;;;;8.78;100.00;101625.06;5269397;28;20592;-74
2023/11/26 11:23:50;;;;;;;41.60;13.77;;;;;;;8.80;100.00;101626.63;5274490;28;20035;-74
2023/11/26 11:26:23;;;;;;;34.97;12.68;;;;;;;8.79;100.00;101630.31;5269858;28;20054;-74
2023/11/26 11:28:55;;;;;;;29.20;13.10;;;;;;;8.89;100.00;101633.00;5273773;27;20030;-74
2023/11/26 11:31:47;;;;;;;32.30;11.98;;;;;;;8.91;100.00;101628.38;5267415;28;20106;-74
2023/11/26 11:34:18;;;;;;;34.55;10.77;;;;;;;8.94;100.00;101622.75;5277401;28;20027;-74
2023/11/26 11:36:50;;;;;;;34.42;11.25;;;;;;;9.01;100.00;101623.88;5277074;28;20030;-74